createdAt,value
2018-06-29T00:00:04.429Z,20.2
2018-06-29T00:15:05.167Z,20.3
2018-06-29T00:30:04.948Z,20.3
2018-06-29T00:45:04.411Z,20.2
2018-06-29T01:00:05.271Z,20.1
2018-06-29T01:15:04.887Z,20
2018-06-29T01:30:04.901Z,20
2018-06-29T01:45:06.020Z,19.9
2018-06-29T02:00:05.337Z,19.8
2018-06-29T02:15:04.959Z,20
2018-06-29T02:30:04.872Z,20
2018-06-29T02:45:04.402Z,20
2018-06-29T03:00:05.409Z,20
2018-06-29T03:15:04.861Z,19.9
2018-06-29T03:30:04.693Z,20
2018-06-29T03:45:04.750Z,20
2018-06-29T04:00:05.444Z,20
2018-06-29T04:15:04.640Z,20
2018-06-29T04:30:05.119Z,19.9
2018-06-29T04:45:04.488Z,20
2018-06-29T05:00:04.978Z,20
2018-06-29T05:15:04.860Z,20
2018-06-29T05:30:04.856Z,20.1
2018-06-29T05:45:04.513Z,20.3
2018-06-29T06:00:04.978Z,20.5
2018-06-29T06:15:04.485Z,20.5
2018-06-29T06:30:04.503Z,20.6
2018-06-29T06:45:05.172Z,20.8
2018-06-29T07:00:04.567Z,21.1
2018-06-29T07:15:04.941Z,21.5
2018-06-29T07:30:05.112Z,21.9
2018-06-29T07:45:04.870Z,22.4
2018-06-29T08:00:04.252Z,22
2018-06-29T08:15:04.739Z,21.6
2018-06-29T08:30:04.494Z,22.1
2018-06-29T08:45:04.879Z,23.6
2018-06-29T09:00:04.802Z,24.2
2018-06-29T09:15:04.686Z,24.9
2018-06-29T09:30:05.279Z,25.5
2018-06-29T09:45:04.815Z,25.9
2018-06-29T10:00:04.289Z,25.6
2018-06-29T10:15:04.706Z,25.2
2018-06-29T10:30:05.033Z,25.3
2018-06-29T10:45:04.756Z,25.3
2018-06-29T11:00:04.468Z,25.2
2018-06-29T11:15:04.847Z,25.2
2018-06-29T11:30:04.979Z,25.3
2018-06-29T11:45:04.537Z,25.4
2018-06-29T12:00:04.352Z,25
2018-06-29T12:15:04.745Z,24.9
2018-06-29T12:30:04.453Z,25
2018-06-29T12:45:04.682Z,25.1
2018-06-29T13:00:04.587Z,25.3
2018-06-29T13:15:05.065Z,25.5
2018-06-29T13:30:04.712Z,25.5
2018-06-29T13:45:04.785Z,25.5
2018-06-29T14:00:04.376Z,25.5
2018-06-29T14:15:04.469Z,25.6
2018-06-29T14:30:05.054Z,25.8
2018-06-29T14:45:04.952Z,25.8
2018-06-29T15:00:04.566Z,25.8
2018-06-29T15:15:04.624Z,26.1
2018-06-29T15:30:04.316Z,26.1
2018-06-29T15:45:06.067Z,26.2
2018-06-29T16:00:05.097Z,26.1
2018-06-29T16:15:04.505Z,26.3
2018-06-29T16:30:04.660Z,26.4
2018-06-29T16:45:04.613Z,26.6
2018-06-29T17:00:04.666Z,26.7
2018-06-29T17:15:05.067Z,27
2018-06-29T17:30:04.862Z,26.9
2018-06-29T17:45:04.788Z,26.6
2018-06-29T18:00:04.464Z,26.6
